Latest Weather Observations for Yarrawonga

IDN60801

Issued at 8:02 pm EST Wednesday 5 August 2015 (issued every 30 minutes, with the page automatically refreshed every 10 minutes)

About weather observations | Map of weather stations | Latest weather observations for NSW | Other Formats
Station Details ID: 081124 Name: YARRAWONGA Lat: -36.03 Lon: 146.03 Height: 128.9 m
Data from the previous 72 hours. | See also: Recent months at Yarrawonga
Date/Time
EST
Temp
°C
App
Temp
°C
Dew
Point
Rel
Hum
%
Delta-T
°C
Wind Press
QNH
hPa
Press
MSL
hPa
Rain
since 9 am
mm
Dir
 
Spd
km/h
Gust
km/h
Spd
kts
Gust
kts
05/08:00pm 5.1 1.6 3.6 90 0.6 W 11 15 6 8 1016.0 1016.2 1.2
05/07:30pm 5.1 2.4 3.6 90 0.6 W 7 11 4 6 1015.9 1016.1 1.2
05/07:00pm 6.3 3.0 4.5 88 0.8 W 11 13 6 7 1015.7 1015.8 1.2
05/06:30pm 5.7 2.3 3.9 88 0.8 SW 11 17 6 9 1015.3 1015.4 1.2
05/06:00pm 8.1 3.1 4.5 78 1.6 SW 20 30 11 16 1014.8 1015.0 1.2
05/05:30pm 8.4 3.9 4.4 76 1.8 WSW 17 24 9 13 1014.0 1014.2 1.2
05/05:00pm 9.5 4.6 4.9 73 2.1 WSW 20 30 11 16 1013.7 1013.9 1.2
05/04:30pm 10.3 5.1 5.5 72 2.2 W 22 32 12 17 1013.3 1013.5 1.2
05/04:00pm 9.8 5.1 5.2 73 2.1 WSW 19 28 10 15 1013.1 1013.3 1.2
05/03:30pm 9.7 4.5 5.5 75 1.9 WSW 22 32 12 17 1013.0 1013.2 1.2
05/03:00pm 11.0 4.8 6.0 71 2.3 W 28 35 15 19 1012.6 1012.8 1.2
05/02:30pm 10.1 3.8 5.5 73 2.1 WSW 28 33 15 18 1012.8 1013.0 1.2
05/02:02pm 10.3 4.2 6.5 77 1.8 WSW 28 46 15 25 1012.6 1012.8 1.2
05/02:00pm 10.6 4.9 6.7 77 1.9 WSW 26 33 14 18 1012.6 1012.8 1.2
05/01:30pm 9.6 5.8 7.7 88 0.9 WSW 17 22 9 12 1012.7 1012.9 1.2
05/01:00pm 10.0 3.4 6.2 77 1.8 SW 30 39 16 21 1013.0 1013.2 0.4
05/12:30pm 10.5 4.4 6.6 77 1.8 W 28 35 15 19 1013.0 1013.2 0.4
05/12:00pm 9.3 4.1 7.4 88 0.9 WSW 24 33 13 18 1013.5 1013.7 0.4
05/11:30am 10.0 5.1 7.1 82 1.4 WSW 22 30 12 16 1013.9 1014.1 0.0
05/11:00am 9.4 3.8 7.0 85 1.1 W 26 37 14 20 1014.1 1014.3 0.0
05/10:30am 9.2 3.7 7.5 89 0.8 W 26 35 14 19 1014.0 1014.2 0.0
05/10:00am 8.6 3.8 7.5 93 0.5 WNW 22 33 12 18 1014.1 1014.3 0.0
05/09:30am 7.9 3.6 7.1 95 0.4 WNW 19 30 10 16 1014.2 1014.4 0.0
05/09:00am 7.9 3.9 6.5 91 0.6 WNW 17 28 9 15 1014.3 1014.5 0.2
05/08:30am 7.8 4.1 6.3 90 0.7 WNW 15 24 8 13 1014.2 1014.4 0.2
05/08:00am 7.5 3.8 6.3 92 0.5 NW 15 24 8 13 1014.1 1014.3 0.2
05/07:30am 7.3 3.6 6.2 93 0.5 NW 15 24 8 13 1014.1 1014.3 0.2
05/07:00am 7.4 3.3 6.0 91 0.6 NW 17 24 9 13 1014.2 1014.4 0.2
05/06:30am 7.3 2.7 5.6 89 0.8 WNW 19 28 10 15 1014.3 1014.5 0.2
05/06:00am 7.2 2.6 5.7 90 0.7 WNW 19 28 10 15 1014.3 1014.5 0.2
05/05:30am 7.0 2.4 5.8 92 0.5 NW 19 32 10 17 1014.4 1014.6 0.2
05/05:00am 6.9 2.6 5.4 90 0.7 NW 17 24 9 13 1014.5 1014.7 0.2
05/04:30am 6.9 2.1 5.4 90 0.7 NW 20 26 11 14 1014.5 1014.7 0.2
05/04:00am 6.9 1.6 5.2 89 0.8 NW 22 32 12 17 1014.8 1015.0 0.2
05/03:30am 6.6 1.8 4.8 88 0.8 NW 19 24 10 13 1015.2 1015.3 0.2
05/03:00am 6.6 1.8 4.6 87 0.9 NNW 19 26 10 14 1015.8 1016.0 0.2
05/02:30am 6.9 2.1 4.6 85 1.0 NW 19 28 10 15 1016.5 1016.7 0.2
05/02:00am 7.0 2.0 4.5 84 1.1 NW 20 26 11 14 1016.9 1017.1 0.2
05/01:30am 6.9 2.1 4.6 85 1.0 NW 19 28 10 15 1017.3 1017.5 0.2
05/01:00am 6.6 2.5 4.3 85 1.0 NNW 15 22 8 12 1017.9 1018.1 0.2
05/12:30am 6.5 2.4 4.2 85 1.0 NNW 15 22 8 12 1018.1 1018.3 0.2
05/12:00am 6.3 2.2 4.1 86 0.9 NNW 15 20 8 11 1018.6 1018.8 0.2
 
Date/Time
EST
Temp
°C
App
Temp
°C
Dew
Point
Rel
Hum
%
Delta-T
°C
Wind Press
QNH
hPa
Press
MSL
hPa
Rain
since 9 am
mm
Dir
 
Spd
km/h
Gust
km/h
Spd
kts
Gust
kts
04/11:30pm 6.3 2.1 3.8 84 1.1 NW 15 24 8 13 1019.1 1019.3 0.2
04/11:00pm 6.3 2.9 3.8 84 1.1 NNW 11 17 6 9 1019.4 1019.6 0.2
04/10:30pm 6.5 3.0 3.3 80 1.4 NNW 11 15 6 8 1019.7 1019.9 0.0
04/10:00pm 6.6 3.4 2.9 77 1.5 NW 9 13 5 7 1020.0 1020.2 0.0
04/09:30pm 6.3 3.6 3.8 84 1.1 NNW 7 9 4 5 1020.4 1020.6 0.0
04/09:00pm 6.4 3.7 3.7 83 1.1 NNW 7 13 4 7 1020.5 1020.7 0.0
04/08:30pm 6.4 3.8 3.4 81 1.3 N 6 7 3 4 1020.8 1021.0 0.0
04/08:00pm 6.9 4.1 3.0 76 1.6 NNW 7 9 4 5 1021.1 1021.3 0.0
04/07:30pm 6.8 4.5 2.9 76 1.6 NNW 4 7 2 4 1021.3 1021.5 0.0
04/07:00pm 7.0 4.4 3.3 77 1.6 NW 6 7 3 4 1021.4 1021.6 0.0
04/06:30pm 7.0 4.5 3.6 79 1.5 NNW 6 7 3 4 1021.2 1021.4 0.0
04/06:00pm 7.3 4.4 2.6 72 2.0 NNW 7 7 4 4 1021.1 1021.3 0.0
04/05:30pm 7.4 4.6 2.3 70 2.1 NNW 6 6 3 3 1021.2 1021.4 0.0
04/05:00pm 7.7 4.9 2.0 67 2.4 NW 6 7 3 4 1021.3 1021.5 0.0
04/04:30pm 7.8 4.3 1.4 64 2.6 W 9 13 5 7 1021.5 1021.7 0.0
04/04:00pm 8.0 4.4 0.5 59 3.0 W 9 15 5 8 1021.6 1021.8 0.0
04/03:30pm 8.1 4.5 0.6 59 3.0 WNW 9 13 5 7 1021.8 1022.0 0.0
04/03:00pm 8.2 4.1 0.0 56 3.2 WSW 11 13 6 7 1021.9 1022.1 0.0
04/02:30pm 8.3 3.9 0.3 57 3.2 WSW 13 17 7 9 1022.0 1022.2 0.0
04/02:00pm 8.1 4.1 0.3 58 3.1 WSW 11 19 6 10 1022.3 1022.6 0.0
04/01:30pm 7.8 2.6 0.3 59 3.0 WSW 17 22 9 12 1022.6 1022.9 0.0
04/01:00pm 8.2 3.5 0.9 60 2.9 WSW 15 20 8 11 1022.9 1023.2 0.0
04/12:30pm 8.3 4.7 2.8 68 2.3 WSW 11 15 6 8 1023.5 1023.7 0.0
04/12:00pm 7.4 3.5 3.6 77 1.6 WSW 13 15 7 8 1024.1 1024.3 0.0
04/11:30am 6.6 2.7 3.2 79 1.4 W 13 17 7 9 1024.6 1024.8 0.0
04/11:00am 6.0 2.8 3.2 82 1.2 W 9 13 5 7 1024.8 1025.0 0.0
04/10:30am 5.1 2.2 2.8 85 0.9 W 7 9 4 5 1024.9 1025.1 0.0
04/10:00am 4.3 1.3 2.3 87 0.8 W 7 9 4 5 1024.9 1025.1 0.0
04/09:30am 3.4 0.6 2.1 91 0.5 WSW 6 7 3 4 1025.0 1025.2 0.0
04/09:00am 2.5 -0.4 1.3 92 0.5 SW 6 7 3 4 1025.0 1025.2 0.0
04/08:30am 1.0 -1.7 0.3 95 0.3 WSW 4 6 2 3 1024.9 1025.1 0.0
04/08:00am -0.5 -4.0 -1.1 96 0.2 W 7 9 4 5 1024.8 1025.0 0.0
04/07:30am -1.9 -5.6 -2.5 96 0.1 WSW 7 9 4 5 1024.6 1024.8 0.0
04/07:00am -2.3 -5.8 -3.0 95 0.1 WSW 6 6 3 3 1024.5 1024.7 0.0
04/06:30am -1.9 -5.4 -2.5 96 0.1 SW 6 6 3 3 1024.3 1024.5 0.0
04/06:00am -1.6 -5.2 -2.2 96 0.1 W 7 9 4 5 1024.0 1024.2 0.0
04/05:30am -1.8 -5.5 -2.5 95 0.2 WSW 7 9 4 5 1023.8 1024.0 0.0
04/05:00am -1.4 -5.0 -2.1 95 0.2 W 7 7 4 4 1023.6 1023.8 0.0
04/04:30am -1.1 -4.7 -1.8 95 0.2 W 7 7 4 4 1023.7 1023.9 0.0
04/04:00am -1.4 -5.0 -2.2 94 0.2 W 7 9 4 5 1023.7 1023.9 0.0
04/03:30am -1.4 -5.0 -2.4 93 0.3 WSW 7 9 4 5 1023.8 1024.0 0.0
04/03:00am -0.1 -3.4 -1.2 92 0.4 W 6 9 3 5 1023.9 1024.1 0.0
04/02:30am 0.1 -3.2 -0.9 93 0.4 W 6 7 3 4 1023.9 1024.1 0.0
04/02:00am -0.3 -3.6 -1.0 95 0.2 W 6 7 3 4 1023.9 1024.1 0.0
04/01:30am -0.6 -3.6 -1.7 92 0.4 WSW 4 6 2 3 1024.0 1024.2 0.0
04/01:00am 0.4 -2.5 -0.9 91 0.5 WSW 4 4 2 2 1024.0 1024.2 0.0
04/12:30am 0.5 -2.4 -0.8 91 0.5 WSW 4 6 2 3 1024.0 1024.2 0.0
04/12:00am 0.4 -2.5 -1.0 90 0.5 WSW 4 6 2 3 1024.1 1024.3 0.0
 
Date/Time
EST
Temp
°C
App
Temp
°C
Dew
Point
Rel
Hum
%
Delta-T
°C
Wind Press
QNH
hPa
Press
MSL
hPa
Rain
since 9 am
mm
Dir
 
Spd
km/h
Gust
km/h
Spd
kts
Gust
kts
03/11:30pm 1.3 -1.5 -0.3 89 0.6 WSW 4 6 2 3 1023.9 1024.1 0.0
03/11:00pm 1.4 -1.8 -0.7 86 0.8 SW 6 6 3 3 1023.9 1024.1 0.0
03/10:30pm 1.9 -1.3 -0.3 85 0.8 SW 6 6 3 3 1024.0 1024.2 0.0
03/10:00pm 1.7 -1.5 -0.4 86 0.8 SW 6 6 3 3 1024.1 1024.3 0.0
03/09:30pm 2.6 -0.5 0.3 85 0.9 SW 6 7 3 4 1023.9 1024.1 0.0
03/09:00pm 2.3 -0.8 0.4 87 0.7 SW 6 9 3 5 1023.8 1024.0 0.0
03/08:30pm 3.0 0.3 0.4 83 1.0 SSW 4 6 2 3 1023.6 1023.8 0.0
03/08:00pm 3.4 0.4 0.6 82 1.1 WSW 6 7 3 4 1023.4 1023.6 0.0
03/07:30pm 3.7 0.7 0.8 81 1.1 SW 6 7 3 4 1023.1 1023.3 0.0
03/07:00pm 3.5 0.2 0.4 80 1.2 WSW 7 7 4 4 1022.6 1022.9 0.0
03/06:30pm 4.2 0.6 0.5 77 1.4 WSW 9 11 5 6 1022.0 1022.2 0.0
03/06:00pm 4.7 0.7 0.7 75 1.5 SW 11 13 6 7 1021.7 1021.9 0.0
03/05:30pm 6.8 2.2 1.3 68 2.2 SW 15 19 8 10 1021.4 1021.6 0.0
03/05:00pm 8.3 3.9 2.8 68 2.3 WSW 15 17 8 9 1020.9 1021.1 0.0
03/04:30pm 8.8 3.6 2.6 65 2.6 WSW 19 24 10 13 1020.7 1020.9 0.0
03/04:00pm 9.7 4.4 3.0 63 2.9 SW 20 28 11 15 1020.2 1020.4 0.0
03/03:30pm 10.4 4.3 2.7 59 3.3 SW 24 32 13 17 1020.0 1020.2 0.0
03/03:00pm 10.1 2.3 1.5 55 3.6 SW 32 46 17 25 1019.6 1019.8 0.0
03/02:30pm 10.2 3.1 3.3 62 3.0 SW 30 43 16 23 1019.3 1019.5 0.0
03/02:00pm 10.7 2.5 2.8 58 3.4 SW 35 46 19 25 1019.0 1019.2 0.0
03/01:30pm 10.4 2.6 3.0 60 3.2 SW 33 44 18 24 1019.0 1019.2 0.0
03/01:00pm 9.9 2.4 3.2 63 2.9 SSW 32 41 17 22 1019.1 1019.3 0.0
03/12:30pm 7.9 -0.9 3.8 75 1.8 SSW 39 54 21 29 1019.2 1019.4 0.0
03/12:21pm 9.0 1.0 3.8 70 2.3 SW 35 52 19 28 1019.1 1019.3 0.0
03/12:00pm 10.8 2.4 3.6 61 3.2 WSW 37 46 20 25 1018.8 1019.0 0.0
03/11:30am 11.1 3.6 4.6 64 3.0 WSW 33 43 18 23 1018.8 1019.0 0.0
03/11:07am 10.9 4.1 5.0 67 2.7 WSW 30 50 16 27 1018.9 1019.1 0.0
03/11:00am 10.4 3.8 6.0 74 2.0 WSW 30 39 16 21 1018.8 1019.0 0.0
03/10:30am 10.0 4.6 6.3 78 1.7 W 24 35 13 19 1018.7 1018.9 0.0
03/10:00am 10.0 4.8 7.4 84 1.2 W 24 33 13 18 1018.5 1018.7 0.0
03/09:30am 8.9 3.2 6.5 85 1.1 W 26 41 14 22 1018.2 1018.4 0.0
03/09:00am 9.2 4.8 7.2 87 0.9 WNW 20 32 11 17 1018.1 1018.3 1.6
03/08:30am 8.1 3.7 6.6 90 0.7 NW 19 28 10 15 1017.9 1018.1 1.6
03/08:00am 7.6 3.9 6.5 93 0.5 NW 15 22 8 12 1017.4 1017.6 1.6
03/07:30am 6.8 3.5 6.2 96 0.3 NW 13 20 7 11 1017.2 1017.4 1.6
03/07:00am 6.8 3.5 6.2 96 0.3 NNW 13 19 7 10 1016.8 1017.0 1.6
03/06:30am 7.4 3.8 6.7 95 0.3 NW 15 22 8 12 1016.8 1017.0 1.6
03/06:00am 7.7 3.8 7.0 95 0.3 NW 17 24 9 13 1016.7 1016.9 1.6
03/05:30am 7.7 4.2 7.1 96 0.3 NW 15 24 8 13 1016.5 1016.7 1.6
03/05:00am 7.8 4.3 7.1 95 0.3 NW 15 20 8 11 1016.5 1016.7 1.6
03/04:30am 7.8 3.9 7.1 95 0.3 NW 17 22 9 12 1016.3 1016.5 1.6
03/04:00am 8.0 4.5 7.4 96 0.3 NW 15 24 8 13 1016.5 1016.7 1.6
03/03:30am 8.0 4.9 7.2 95 0.4 NW 13 20 7 11 1016.6 1016.8 1.2
03/03:00am 8.3 4.4 7.1 92 0.6 NW 17 22 9 12 1016.7 1016.9 1.2
03/02:30am 8.2 4.7 7.1 93 0.5 NW 15 22 8 12 1017.0 1017.2 1.2
03/02:00am 8.5 4.3 7.3 92 0.6 NW 19 28 10 15 1017.2 1017.4 1.2
03/01:30am 8.6 4.8 7.5 93 0.5 NW 17 28 9 15 1017.2 1017.4 1.2
03/01:00am 8.8 4.6 7.3 90 0.7 NW 19 26 10 14 1017.2 1017.4 1.0
03/12:30am 8.8 5.3 7.1 89 0.8 NW 15 22 8 12 1017.4 1017.6 1.0
03/12:00am 8.6 5.0 6.9 89 0.8 NW 15 20 8 11 1017.4 1017.6 1.0
 
Date/Time
EST
Temp
°C
App
Temp
°C
Dew
Point
Rel
Hum
%
Delta-T
°C
Wind Press
QNH
hPa
Press
MSL
hPa
Rain
since 9 am
mm
Dir
 
Spd
km/h
Gust
km/h
Spd
kts
Gust
kts
02/11:30pm 8.7 5.1 6.7 87 0.9 NNW 15 22 8 12 1017.3 1017.5 1.0
02/11:00pm 9.2 4.8 6.6 84 1.2 NW 19 30 10 16 1017.3 1017.5 1.0
02/10:30pm 9.5 4.5 6.4 81 1.4 NW 22 33 12 18 1017.5 1017.7 1.0
02/10:00pm 9.1 5.0 6.0 81 1.4 NNW 17 22 9 12 1017.4 1017.6 1.0
02/09:30pm 8.9 4.4 6.0 82 1.3 NNW 19 24 10 13 1017.2 1017.4 1.0
02/09:00pm 9.0 4.5 6.1 82 1.3 NNW 19 22 10 12 1017.1 1017.3 1.0
02/08:30pm 8.7 4.9 6.0 83 1.2 NNW 15 20 8 11 1016.9 1017.1 1.0

Other Formats:

Comma delimited format used in spreadsheet applications
http://www.bom.gov.au/fwo/IDN60801/IDN60801.94862.axf

JavaScript Object Notation format (JSON) in row-major order
http://www.bom.gov.au/fwo/IDN60801/IDN60801.94862.json